Prince Albert Glass Field
CYPA : now visible

Airfield :











YOU CAN JOIN US ON...

 
LOGIN :

Register | Disclaimer

   EN    FR    IT 

 









Legend :    VFR   Marginal VFR   IFR   Intensive IFR   Very Intensive IFR
Visi :
Ceiling :
>= 8 km
>= 3000ft
5 to 8 km
1000 to 3000 ft
1500m to 5 km
500 to 1000 ft
800 to 1500m
200 to 500 ft
< 800m
< 200 ft
Symbols :   Thunderstorms  Fog  Heavy snow  Heavy precipitations  Wind > 20 kt






- Airport Elevation : 1405 ft
- IATA code : YPA


CYPA - Prince Albert Glass Field

CURRENT METAR :
  • 070100Z 21003KT 10SM FEW230 M14/M15 A2995 RMK CI1 BR FROIN SLP185

EXPIRED METARs :
  • 070000Z 20004KT 10SM FEW230 M11/M13 A2998 RMK CI2 BR FROIN SLP191
  • 062300Z 20004KT 10SM FEW250 M10/M11 A2998 RMK CI2 BR SLP192

TAF TAF CYPA
Valid from the 07 at 01:00 until the 07 at 13:00 UTC


070038Z 0701/0713 20006KT P6SM FEW240
FM070600 VRB03KT P6SM SCT080 BKN200
TEMPO 0706/0713 2SM BR
PROB30 0706/0713 1/2SM FZFG VV002 RMK NXT FCST BY 070700Z



MET'MAP, your aeronautical weather chart ! - Copyright ORBIFLY December 2007 - Disclaimer

ORBIFLY MET'MAP TEAM :

Programming & Development : Alexandra Zaïnal
Concept & original design : Baudouin d'Aumeries
Assistance for programming : Marc-Olivier Méhu
Technical & hardware support : Manuel Goepfert

Contact : metmap@orbifly.com




SOURCES & CREDITS :

   NOAA       Earth
Advisory